Time;durP1;ratioP1;P1;durP2;ratioP2;P2;SDS_P1;SDS_P2;PMS_P1;PMS_P2;Temp;Humidity;BMP_temperature;BMP_pressure;BME280_temperature;BME280_humidity;BME280_pressure;Samples;Min_cycle;Max_cycle;Signal;HPM_P1;HPM_P2
2023/01/12 00:01:44;;;;;;;0.30;0.20;;;5.40;99.90;;;;;;5074192;28;20492;-82
2023/01/12 00:04:12;;;;;;;0.30;0.20;;;5.40;99.90;;;;;;5073569;28;20480;-82
2023/01/12 00:06:40;;;;;;;0.57;0.57;;;5.40;99.90;;;;;;5073517;28;20450;-81
2023/01/12 00:09:07;;;;;;;0.30;0.30;;;5.40;99.90;;;;;;5073495;28;20437;-81
2023/01/12 00:11:34;;;;;;;0.30;0.20;;;5.40;99.90;;;;;;5073119;28;20956;-82
2023/01/12 00:14:03;;;;;;;0.50;0.30;;;5.40;99.90;;;;;;5073325;28;20450;-81
2023/01/12 00:16:36;;;;;;;0.30;0.20;;;5.40;99.90;;;;;;5073051;28;20504;-82
2023/01/12 00:19:05;;;;;;;0.40;0.30;;;5.40;99.90;;;;;;5073415;28;20972;-81
2023/01/12 00:21:34;;;;;;;0.30;0.30;;;5.40;99.90;;;;;;5073332;28;20545;-81
2023/01/12 00:24:05;;;;;;;0.40;0.30;;;5.40;99.90;;;;;;5073477;28;20906;-81
2023/01/12 00:26:31;;;;;;;0.30;0.30;;;5.40;99.90;;;;;;5073264;28;20449;-82
2023/01/12 00:28:58;;;;;;;0.30;0.20;;;5.50;99.90;;;;;;5073273;28;20456;-82
2023/01/12 00:31:26;;;;;;;0.40;0.30;;;5.50;99.90;;;;;;5073001;28;20831;-81
2023/01/12 00:33:53;;;;;;;0.30;0.20;;;5.50;99.90;;;;;;5073240;28;20460;-81
2023/01/12 00:36:20;;;;;;;0.30;0.30;;;5.60;99.90;;;;;;5073151;28;20512;-81
2023/01/12 00:38:48;;;;;;;1.10;0.60;;;5.70;99.90;;;;;;5072885;28;20953;-82
2023/01/12 00:45:20;;;;;;;0.30;0.30;;;5.70;99.90;;;;;;5076058;28;20473;-81
2023/01/12 00:46:48;;;;;;;0.30;0.30;;;5.80;99.90;;;;;;5077080;28;20468;-81
2023/01/12 00:49:15;;;;;;;0.30;0.20;;;5.80;99.90;;;;;;5077252;28;20429;-81
2023/01/12 00:51:41;;;;;;;0.40;0.30;;;5.90;99.90;;;;;;5076987;28;20944;-81
2023/01/12 00:54:09;;;;;;;0.40;0.40;;;5.90;99.90;;;;;;5077000;28;20478;-82
2023/01/12 00:56:36;;;;;;;0.63;0.63;;;6.00;99.90;;;;;;5077025;28;20478;-82
2023/01/12 00:59:03;;;;;;;0.30;0.30;;;5.90;99.90;;;;;;5077145;28;20812;-81
2023/01/12 01:01:30;;;;;;;0.30;0.20;;;5.90;99.90;;;;;;5077006;28;20456;-81
2023/01/12 01:03:58;;;;;;;0.30;0.30;;;5.90;99.90;;;;;;5076480;28;20809;-82
2023/01/12 01:06:25;;;;;;;0.37;0.30;;;5.90;99.90;;;;;;5077032;28;20450;-82
2023/01/12 01:08:52;;;;;;;0.30;0.30;;;5.90;99.90;;;;;;5076518;28;20445;-81
2023/01/12 01:11:19;;;;;;;0.30;0.20;;;5.90;99.90;;;;;;5076733;28;20448;-82
2023/01/12 01:13:46;;;;;;;0.60;0.50;;;6.00;99.90;;;;;;5076723;28;20453;-81
2023/01/12 01:16:15;;;;;;;0.30;0.30;;;6.00;99.90;;;;;;5076196;28;20496;-82
2023/01/12 01:18:42;;;;;;;1.70;0.37;;;6.00;99.90;;;;;;5076739;28;20472;-82
2023/01/12 01:21:11;;;;;;;0.30;0.30;;;6.00;99.90;;;;;;5076365;28;20460;-82
2023/01/12 01:23:38;;;;;;;0.30;0.20;;;6.00;99.90;;;;;;5076459;28;20849;-81
2023/01/12 01:26:06;;;;;;;0.30;0.20;;;6.00;99.90;;;;;;5076052;28;20477;-81
2023/01/12 01:28:34;;;;;;;0.40;0.40;;;6.10;99.90;;;;;;5076385;28;20794;-81
2023/01/12 01:31:03;;;;;;;0.70;0.40;;;6.10;99.90;;;;;;5076052;28;20452;-82
2023/01/12 01:33:30;;;;;;;0.67;0.43;;;6.00;99.90;;;;;;5076392;28;20826;-82
2023/01/12 01:35:57;;;;;;;0.40;0.30;;;6.00;99.90;;;;;;5076120;28;20521;-82
2023/01/12 01:38:25;;;;;;;0.30;0.30;;;6.00;99.90;;;;;;5076290;28;20449;-82
2023/01/12 01:40:52;;;;;;;0.30;0.20;;;6.10;99.90;;;;;;5075896;28;20445;-82
2023/01/12 01:43:20;;;;;;;0.30;0.30;;;6.10;99.90;;;;;;5076151;28;20449;-82
2023/01/12 01:45:55;;;;;;;0.30;0.20;;;6.10;99.90;;;;;;5075951;28;21002;-82
2023/01/12 01:48:23;;;;;;;0.30;0.30;;;6.10;99.90;;;;;;5076097;28;20425;-81
2023/01/12 01:50:56;;;;;;;0.40;0.40;;;6.10;99.90;;;;;;5075984;28;20457;-82
2023/01/12 01:53:26;;;;;;;0.30;0.20;;;6.20;99.90;;;;;;5075079;28;20438;-81
2023/01/12 01:55:57;;;;;;;0.30;0.30;;;6.20;99.90;;;;;;5075871;28;20489;-82
2023/01/12 01:58:28;;;;;;;0.50;0.40;;;6.30;99.90;;;;;;5076649;28;20790;-81
2023/01/12 02:00:56;;;;;;;0.30;0.20;;;6.30;99.90;;;;;;5076028;28;20452;-82
2023/01/12 02:03:24;;;;;;;0.30;0.30;;;6.30;99.90;;;;;;5075756;28;20498;-81
2023/01/12 02:05:52;;;;;;;0.30;0.30;;;6.30;99.90;;;;;;5075385;28;20468;-81
2023/01/12 02:08:25;;;;;;;0.40;0.40;;;6.40;99.90;;;;;;5075695;28;20453;-82
2023/01/12 02:10:55;;;;;;;0.57;0.30;;;6.40;99.90;;;;;;5075643;28;20430;-82
2023/01/12 02:16:22;;;;;;;0.70;0.40;;;6.30;99.90;;;;;;5075000;28;20858;-81
2023/01/12 02:18:56;;;;;;;0.30;0.30;;;6.40;99.90;;;;;;5075338;28;20434;-82
2023/01/12 02:21:56;;;;;;;0.30;0.20;;;6.30;99.90;;;;;;5075494;28;20448;-82
2023/01/12 02:24:40;;;;;;;0.30;0.30;;;6.40;99.90;;;;;;5072820;28;20850;-82
2023/01/12 02:27:24;;;;;;;0.30;0.20;;;6.40;99.90;;;;;;5075406;28;20449;-82
2023/01/12 02:30:34;;;;;;;0.30;0.30;;;6.40;99.90;;;;;;5075333;28;20893;-82
2023/01/12 02:33:15;;;;;;;0.47;0.30;;;6.40;99.90;;;;;;5074980;28;20935;-82
2023/01/12 02:35:50;;;;;;;0.30;0.20;;;6.40;99.90;;;;;;5074844;28;20456;-81
2023/01/12 02:38:25;;;;;;;0.30;0.30;;;6.40;99.90;;;;;;5075129;28;20429;-82
2023/01/12 02:41:01;;;;;;;0.50;0.33;;;6.40;99.90;;;;;;5075118;28;20437;-81
2023/01/12 02:43:29;;;;;;;0.40;0.30;;;6.30;99.90;;;;;;5075098;28;20437;-82
2023/01/12 02:46:02;;;;;;;0.30;0.30;;;6.30;99.90;;;;;;5074866;28;20472;-82
2023/01/12 02:48:36;;;;;;;0.40;0.30;;;6.30;99.90;;;;;;5074989;28;20430;-81
2023/01/12 02:51:09;;;;;;;0.30;0.20;;;6.30;99.90;;;;;;5074955;28;20437;-82
2023/01/12 02:53:42;;;;;;;0.30;0.30;;;6.40;99.90;;;;;;5074865;28;20452;-82
2023/01/12 02:56:10;;;;;;;0.30;0.30;;;6.30;99.90;;;;;;5074596;28;20496;-82
2023/01/12 02:58:42;;;;;;;0.30;0.30;;;6.30;99.90;;;;;;5074479;28;20433;-81
2023/01/12 03:01:09;;;;;;;0.87;0.30;;;6.30;99.90;;;;;;5074574;28;20932;-82
2023/01/12 03:03:38;;;;;;;0.30;0.30;;;6.20;99.90;;;;;;5075348;28;20480;-82
2023/01/12 03:06:07;;;;;;;7.00;0.40;;;6.20;99.90;;;;;;5074106;28;20805;-82
2023/01/12 03:08:36;;;;;;;0.30;0.20;;;6.30;99.90;;;;;;5074677;28;20495;-82
2023/01/12 03:11:11;;;;;;;0.87;0.67;;;6.30;99.90;;;;;;5074582;28;20446;-82
2023/01/12 03:13:44;;;;;;;0.30;0.20;;;6.30;99.90;;;;;;5074786;28;20494;-81
2023/01/12 03:16:12;;;;;;;0.30;0.20;;;6.30;99.90;;;;;;5074350;28;20580;-82
2023/01/12 03:18:48;;;;;;;0.30;0.30;;;6.30;99.90;;;;;;5074170;28;20445;-82
2023/01/12 03:21:20;;;;;;;0.40;0.30;;;6.40;99.90;;;;;;5074335;28;20418;-81
2023/01/12 03:23:49;;;;;;;0.30;0.30;;;6.40;99.90;;;;;;5074246;28;20452;-82
2023/01/12 03:26:22;;;;;;;0.30;0.30;;;6.40;99.90;;;;;;5074147;28;20437;-82
2023/01/12 03:28:52;;;;;;;0.30;0.20;;;6.40;99.90;;;;;;5074626;28;20780;-82
2023/01/12 03:31:20;;;;;;;0.30;0.30;;;6.40;99.90;;;;;;5074320;28;20433;-82
2023/01/12 03:33:48;;;;;;;1.07;0.70;;;6.40;99.90;;;;;;5074071;28;20820;-82
2023/01/12 03:36:24;;;;;;;0.30;0.30;;;6.40;99.90;;;;;;5073861;28;20474;-82
2023/01/12 03:39:01;;;;;;;0.30;0.30;;;6.40;99.90;;;;;;5073985;28;20440;-82
2023/01/12 03:41:37;;;;;;;0.30;0.30;;;6.40;99.90;;;;;;5073943;28;20441;-82
2023/01/12 03:44:06;;;;;;;0.30;0.30;;;6.40;99.90;;;;;;5073804;28;20430;-82
2023/01/12 03:46:38;;;;;;;4.87;0.50;;;6.40;99.90;;;;;;5074049;28;20857;-81
2023/01/12 03:49:10;;;;;;;0.30;0.30;;;6.40;99.90;;;;;;5073809;28;20434;-81
2023/01/12 03:51:41;;;;;;;0.40;0.30;;;6.40;99.90;;;;;;5073762;28;20441;-82
2023/01/12 03:54:10;;;;;;;0.30;0.30;;;6.40;99.90;;;;;;5073627;28;20480;-82
2023/01/12 03:56:40;;;;;;;0.30;0.20;;;6.40;99.90;;;;;;5073574;28;20500;-82
2023/01/12 03:59:08;;;;;;;0.30;0.20;;;6.50;99.90;;;;;;5073676;28;20445;-81
2023/01/12 04:01:35;;;;;;;0.30;0.20;;;6.50;99.90;;;;;;5073904;28;20453;-82
2023/01/12 04:04:02;;;;;;;0.33;0.30;;;6.40;99.90;;;;;;5073510;28;20540;-82
2023/01/12 04:06:30;;;;;;;0.30;0.20;;;6.50;99.90;;;;;;5073279;28;20446;-82
2023/01/12 04:08:57;;;;;;;0.30;0.30;;;6.50;99.90;;;;;;5073511;28;20449;-82
2023/01/12 04:14:07;;;;;;;0.30;0.30;;;6.50;99.90;;;;;;5073385;28;20460;-82
2023/01/12 04:16:34;;;;;;;0.43;0.43;;;6.50;99.90;;;;;;5072551;28;20492;-82
2023/01/12 04:19:01;;;;;;;0.40;0.40;;;6.50;99.90;;;;;;5073432;28;20519;-82
2023/01/12 04:24:13;;;;;;;0.30;0.20;;;6.60;99.90;;;;;;5073315;28;20567;-82
2023/01/12 04:26:40;;;;;;;0.30;0.20;;;6.50;99.90;;;;;;5073302;28;20449;-80
2023/01/12 04:29:06;;;;;;;0.53;0.53;;;6.50;99.90;;;;;;5073004;28;20928;-80
2023/01/12 04:31:33;;;;;;;0.30;0.20;;;6.50;99.90;;;;;;5073277;28;20449;-80
2023/01/12 04:34:00;;;;;;;0.30;0.30;;;6.50;99.90;;;;;;5073364;28;20878;-80
2023/01/12 04:36:27;;;;;;;0.30;0.30;;;6.50;99.90;;;;;;5073131;28;20455;-80
2023/01/12 04:38:53;;;;;;;0.30;0.30;;;6.50;99.90;;;;;;5073245;28;20837;-80
2023/01/12 04:41:21;;;;;;;0.30;0.20;;;6.50;99.90;;;;;;5073221;28;20442;-81
2023/01/12 04:43:48;;;;;;;0.30;0.30;;;6.50;99.90;;;;;;5073022;28;20952;-80
2023/01/12 04:46:15;;;;;;;0.30;0.30;;;6.40;99.90;;;;;;5072840;28;20460;-80
2023/01/12 04:48:44;;;;;;;0.30;0.30;;;6.40;99.90;;;;;;5073152;28;20454;-80
2023/01/12 04:51:11;;;;;;;0.30;0.20;;;6.40;99.90;;;;;;5072999;28;20468;-80
2023/01/12 04:53:38;;;;;;;0.30;0.30;;;6.40;99.90;;;;;;5073042;28;20452;-80
2023/01/12 04:56:06;;;;;;;1.47;0.40;;;6.40;99.90;;;;;;5072952;28;20469;-81
2023/01/12 04:58:34;;;;;;;0.70;0.47;;;6.50;99.90;;;;;;5072938;28;20492;-81
2023/01/12 05:01:08;;;;;;;0.40;0.40;;;6.50;99.90;;;;;;5073015;28;20445;-81
2023/01/12 05:03:35;;;;;;;0.50;0.40;;;6.50;99.90;;;;;;5073026;28;20445;-81
2023/01/12 05:06:01;;;;;;;3.43;0.40;;;6.60;99.90;;;;;;5072883;28;20469;-81
2023/01/12 05:11:12;;;;;;;0.30;0.20;;;6.60;99.90;;;;;;5072997;28;20896;-81
2023/01/12 05:13:40;;;;;;;0.30;0.27;;;6.70;99.90;;;;;;5072894;28;20450;-80
2023/01/12 05:16:09;;;;;;;1.33;0.30;;;6.70;99.90;;;;;;5072372;28;20481;-81
2023/01/12 05:18:35;;;;;;;0.30;0.30;;;6.70;99.90;;;;;;5072453;28;20482;-81
2023/01/12 05:21:02;;;;;;;0.30;0.30;;;6.70;99.90;;;;;;5072823;28;20473;-80
2023/01/12 05:23:29;;;;;;;0.30;0.30;;;6.70;99.90;;;;;;5072894;28;20476;-81
2023/01/12 05:25:58;;;;;;;0.30;0.20;;;6.80;99.90;;;;;;5072667;28;20469;-81
2023/01/12 05:28:25;;;;;;;0.30;0.30;;;6.80;99.90;;;;;;5075572;28;20441;-81
2023/01/12 05:30:53;;;;;;;0.30;0.20;;;6.80;99.90;;;;;;5076500;28;20450;-81
2023/01/12 05:33:20;;;;;;;0.30;0.30;;;6.80;99.90;;;;;;5076543;28;20449;-81
2023/01/12 05:35:47;;;;;;;0.40;0.30;;;6.80;99.90;;;;;;5076405;28;20501;-81
2023/01/12 05:38:13;;;;;;;8.03;0.47;;;6.80;99.90;;;;;;5076161;28;20484;-81
2023/01/12 05:40:40;;;;;;;0.30;0.20;;;6.80;99.90;;;;;;5076186;28;20449;-81
2023/01/12 05:45:56;;;;;;;0.40;0.30;;;6.80;99.90;;;;;;5075879;28;20460;-81
2023/01/12 05:48:23;;;;;;;0.30;0.30;;;6.80;99.90;;;;;;5076153;28;20445;-81
2023/01/12 05:50:49;;;;;;;0.47;0.47;;;6.80;99.90;;;;;;5076016;28;20449;-81
2023/01/12 05:53:16;;;;;;;0.30;0.20;;;6.80;99.90;;;;;;5075669;28;20941;-81
2023/01/12 05:55:43;;;;;;;0.30;0.30;;;6.70;99.90;;;;;;5075880;28;20469;-81
2023/01/12 05:58:09;;;;;;;0.30;0.20;;;6.70;99.90;;;;;;5075620;28;20481;-80
2023/01/12 06:00:36;;;;;;;0.30;0.30;;;6.70;99.90;;;;;;5075962;28;20441;-81
2023/01/12 06:03:04;;;;;;;0.30;0.30;;;6.70;99.90;;;;;;5075766;28;20950;-81
2023/01/12 06:05:31;;;;;;;0.30;0.30;;;6.60;99.90;;;;;;5075652;28;20843;-81
2023/01/12 06:07:58;;;;;;;0.33;0.27;;;6.60;99.90;;;;;;5075717;28;20445;-81
2023/01/12 06:10:24;;;;;;;0.40;0.30;;;6.60;99.90;;;;;;5075686;28;20453;-81
2023/01/12 06:15:36;;;;;;;0.40;0.30;;;6.60;99.90;;;;;;5075366;28;20477;-81
2023/01/12 06:18:04;;;;;;;0.30;0.20;;;6.60;99.90;;;;;;5075654;28;20489;-81
2023/01/12 06:20:30;;;;;;;0.30;0.30;;;6.50;99.90;;;;;;5075447;28;20457;-81
2023/01/12 06:23:00;;;;;;;0.30;0.30;;;6.50;99.90;;;;;;5075564;28;20454;-81
2023/01/12 06:25:28;;;;;;;0.30;0.20;;;6.50;99.90;;;;;;5075176;28;20980;-81
2023/01/12 06:27:55;;;;;;;0.60;0.60;;;6.40;99.90;;;;;;5075390;28;20453;-81
2023/01/12 06:30:22;;;;;;;0.30;0.30;;;6.40;99.90;;;;;;5075081;28;20448;-81
2023/01/12 06:32:49;;;;;;;0.30;0.20;;;6.40;99.90;;;;;;5075123;28;20433;-81
2023/01/12 06:35:17;;;;;;;0.30;0.20;;;6.50;99.90;;;;;;5075293;28;20477;-81
2023/01/12 06:37:44;;;;;;;0.30;0.30;;;6.50;99.90;;;;;;5074625;28;20481;-81
2023/01/12 06:40:12;;;;;;;0.37;0.30;;;6.50;99.90;;;;;;5075132;28;20457;-81
2023/01/12 06:42:40;;;;;;;0.93;0.60;;;6.50;99.90;;;;;;5074886;28;20457;-81
2023/01/12 06:45:08;;;;;;;0.30;0.20;;;6.50;99.90;;;;;;5074942;28;20477;-81
2023/01/12 06:47:44;;;;;;;0.30;0.20;;;6.50;99.90;;;;;;5075047;28;20430;-81
2023/01/12 06:50:11;;;;;;;0.30;0.20;;;6.60;99.90;;;;;;5074668;28;20434;-81
2023/01/12 06:52:39;;;;;;;0.40;0.30;;;6.60;99.90;;;;;;5075508;28;20481;-81
2023/01/12 06:55:07;;;;;;;0.37;0.27;;;6.50;99.90;;;;;;5074780;28;20468;-81
2023/01/12 06:57:34;;;;;;;0.30;0.20;;;6.60;99.90;;;;;;5074700;28;20496;-81
2023/01/12 07:00:00;;;;;;;0.30;0.20;;;6.60;99.90;;;;;;5074735;28;20445;-81
2023/01/12 07:02:27;;;;;;;0.30;0.20;;;6.70;99.90;;;;;;5074637;28;20809;-81
2023/01/12 07:04:54;;;;;;;2.73;0.60;;;6.80;99.90;;;;;;5074529;28;20469;-81
2023/01/12 07:07:20;;;;;;;0.30;0.30;;;6.80;99.90;;;;;;5074581;28;20441;-81
2023/01/12 07:09:48;;;;;;;0.30;0.20;;;6.80;99.90;;;;;;5074201;28;20879;-81
2023/01/12 07:12:16;;;;;;;0.30;0.30;;;6.90;99.90;;;;;;5074176;28;20434;-81
2023/01/12 07:14:42;;;;;;;0.30;0.30;;;6.80;99.90;;;;;;5074092;28;20527;-81
2023/01/12 07:17:11;;;;;;;0.30;0.27;;;6.90;99.90;;;;;;5074004;28;20441;-81
2023/01/12 07:19:38;;;;;;;0.30;0.20;;;6.90;99.90;;;;;;5074471;28;20465;-81
2023/01/12 07:22:04;;;;;;;0.30;0.20;;;6.90;99.90;;;;;;5073966;28;20945;-80
2023/01/12 07:24:31;;;;;;;0.30;0.30;;;6.90;99.90;;;;;;5074131;28;20465;-81
2023/01/12 07:27:00;;;;;;;0.30;0.20;;;6.90;99.90;;;;;;5073950;28;20434;-80
2023/01/12 07:29:27;;;;;;;0.30;0.20;;;6.90;99.90;;;;;;5074590;28;20477;-81
2023/01/12 07:31:54;;;;;;;0.37;0.37;;;7.00;99.90;;;;;;5074051;28;20432;-80
2023/01/12 07:34:21;;;;;;;0.30;0.30;;;7.00;99.90;;;;;;5073949;28;20474;-81
2023/01/12 07:36:49;;;;;;;0.30;0.30;;;7.00;99.90;;;;;;5073671;28;20456;-81
2023/01/12 07:39:16;;;;;;;0.40;0.30;;;6.90;99.90;;;;;;5073556;28;21111;-81
2023/01/12 07:44:29;;;;;;;0.93;0.93;;;7.00;99.90;;;;;;5078544;28;20541;-81
2023/01/12 07:46:58;;;;;;;0.80;0.30;;;7.00;99.90;;;;;;5075118;28;20445;-82
2023/01/12 07:49:25;;;;;;;0.30;0.30;;;7.10;99.90;;;;;;5073836;28;20479;-81
2023/01/12 07:51:53;;;;;;;0.50;0.33;;;7.10;99.90;;;;;;5075158;28;20518;-82
2023/01/12 07:54:22;;;;;;;0.40;0.30;;;7.20;99.90;;;;;;5074339;28;20474;-82
2023/01/12 07:56:49;;;;;;;0.40;0.30;;;7.20;99.90;;;;;;5075076;28;20438;-81
2023/01/12 07:59:17;;;;;;;0.30;0.30;;;7.10;99.90;;;;;;5074093;28;20904;-81
2023/01/12 08:01:45;;;;;;;0.30;0.30;;;7.10;99.90;;;;;;5073394;28;20504;-80
2023/01/12 08:04:12;;;;;;;0.63;0.63;;;7.10;99.90;;;;;;5073535;28;20469;-81
2023/01/12 08:06:39;;;;;;;0.30;0.30;;;7.10;99.90;;;;;;5073287;28;20434;-80
2023/01/12 08:09:06;;;;;;;0.30;0.20;;;7.10;99.90;;;;;;5073513;28;20446;-80
2023/01/12 08:11:32;;;;;;;0.30;0.20;;;7.00;99.90;;;;;;5073469;28;20468;-80
2023/01/12 08:14:00;;;;;;;0.53;0.50;;;7.10;99.90;;;;;;5073374;28;20449;-80
2023/01/12 08:16:31;;;;;;;1.60;1.43;;;7.00;99.90;;;;;;5073143;28;20521;-81
2023/01/12 08:19:09;;;;;;;0.30;0.30;;;7.10;99.90;;;;;;5073373;28;20469;-80
2023/01/12 08:21:44;;;;;;;0.40;0.40;;;7.10;99.90;;;;;;5073457;28;20440;-81
2023/01/12 08:24:14;;;;;;;0.30;0.30;;;7.10;99.90;;;;;;5073294;28;20496;-81
2023/01/12 08:26:44;;;;;;;0.30;0.30;;;7.20;99.90;;;;;;5073030;28;20941;-81
2023/01/12 08:29:14;;;;;;;0.30;0.20;;;7.10;99.90;;;;;;5073608;28;20432;-81
2023/01/12 08:31:42;;;;;;;0.30;0.20;;;7.10;99.90;;;;;;5074000;28;20438;-81
2023/01/12 08:34:11;;;;;;;0.50;0.30;;;7.10;99.90;;;;;;5073113;28;20477;-81
2023/01/12 08:36:40;;;;;;;0.73;0.67;;;7.10;99.90;;;;;;5073201;28;20449;-81
2023/01/12 08:39:07;;;;;;;0.30;0.20;;;7.10;99.90;;;;;;5072859;28;20480;-80
2023/01/12 08:41:35;;;;;;;0.30;0.20;;;7.20;99.90;;;;;;5073228;28;20430;-80
2023/01/12 08:44:06;;;;;;;0.60;0.40;;;7.20;99.90;;;;;;5074180;28;20453;-81
2023/01/12 08:46:34;;;;;;;0.30;0.20;;;7.20;99.90;;;;;;5073461;28;20444;-80
2023/01/12 08:49:02;;;;;;;0.30;0.20;;;7.20;99.90;;;;;;5074106;28;20457;-80
2023/01/12 08:51:30;;;;;;;0.30;0.30;;;7.20;99.90;;;;;;5075236;28;20976;-80
2023/01/12 08:53:57;;;;;;;0.40;0.30;;;7.20;99.90;;;;;;5075985;28;20944;-81
2023/01/12 08:56:23;;;;;;;0.30;0.27;;;7.20;99.90;;;;;;5073075;28;20449;-81
2023/01/12 08:58:50;;;;;;;0.40;0.33;;;7.20;99.90;;;;;;5072915;28;20489;-81
2023/01/12 09:01:18;;;;;;;0.30;0.20;;;7.20;99.90;;;;;;5074177;28;20460;-80
2023/01/12 09:03:47;;;;;;;0.50;0.30;;;7.20;99.90;;;;;;5077192;28;20448;-81
2023/01/12 09:06:16;;;;;;;0.30;0.20;;;7.30;99.90;;;;;;5077075;28;20477;-81
2023/01/12 09:08:44;;;;;;;0.30;0.20;;;7.30;99.90;;;;;;5076575;28;20445;-81
2023/01/12 09:11:13;;;;;;;0.50;0.40;;;7.30;99.90;;;;;;5076902;28;20921;-81
2023/01/12 09:13:40;;;;;;;0.40;0.30;;;7.20;99.90;;;;;;5076749;28;20452;-81
2023/01/12 09:16:08;;;;;;;0.57;0.57;;;7.20;99.90;;;;;;5076435;28;20485;-80
2023/01/12 09:18:36;;;;;;;1.33;0.30;;;7.20;99.90;;;;;;5076777;28;20477;-81
2023/01/12 09:21:04;;;;;;;0.30;0.30;;;7.20;99.90;;;;;;5076270;28;20437;-81
2023/01/12 09:23:31;;;;;;;0.30;0.30;;;7.30;99.90;;;;;;5076264;28;20964;-81
2023/01/12 09:26:04;;;;;;;0.30;0.30;;;7.40;99.90;;;;;;5076141;28;21000;-81
2023/01/12 09:28:31;;;;;;;0.30;0.20;;;7.40;99.90;;;;;;5077004;28;20429;-81
2023/01/12 09:31:01;;;;;;;0.47;0.40;;;7.50;99.90;;;;;;5076318;28;20514;-81
2023/01/12 09:33:29;;;;;;;2.27;0.30;;;7.50;99.90;;;;;;5076371;28;20460;-81
2023/01/12 09:36:00;;;;;;;0.30;0.20;;;7.60;99.90;;;;;;5076338;28;20491;-81
2023/01/12 09:38:27;;;;;;;0.30;0.30;;;7.60;99.90;;;;;;5075949;28;21006;-81
2023/01/12 09:40:54;;;;;;;0.30;0.30;;;7.60;99.90;;;;;;5076317;28;20445;-81
2023/01/12 09:49:02;;;;;;;0.30;0.30;;;7.80;99.90;;;;;;5076217;28;20533;-81
2023/01/12 09:51:34;;;;;;;1.23;0.40;;;7.80;99.90;;;;;;5075818;28;20457;-81
2023/01/12 09:54:01;;;;;;;0.30;0.30;;;7.80;99.90;;;;;;5075477;28;20449;-80
2023/01/12 09:56:34;;;;;;;0.30;0.30;;;7.90;99.90;;;;;;5075602;28;20449;-81
2023/01/12 09:59:30;;;;;;;0.33;0.27;;;7.90;99.90;;;;;;5075872;28;20469;-81
2023/01/12 10:01:57;;;;;;;0.30;0.30;;;7.90;99.90;;;;;;5070289;28;20453;-80
2023/01/12 10:04:24;;;;;;;0.40;0.30;;;7.90;99.90;;;;;;5075735;28;20461;-80
2023/01/12 10:06:51;;;;;;;11.27;2.60;;;8.00;99.90;;;;;;5075767;28;20468;-80
2023/01/12 10:09:20;;;;;;;0.90;0.73;;;8.00;99.90;;;;;;5075770;28;20516;-80
2023/01/12 10:11:52;;;;;;;0.33;0.30;;;8.20;99.90;;;;;;5075384;28;20441;-80
2023/01/12 10:14:37;;;;;;;0.30;0.30;;;8.20;99.90;;;;;;5074734;28;20867;-80
2023/01/12 10:17:22;;;;;;;0.63;0.63;;;8.20;99.90;;;;;;5075561;28;20924;-80
2023/01/12 10:19:57;;;;;;;0.40;0.30;;;8.20;99.90;;;;;;5075676;28;20489;-80
2023/01/12 10:22:39;;;;;;;1.13;0.60;;;8.20;99.90;;;;;;5075688;28;20445;-80
2023/01/12 10:25:16;;;;;;;0.30;0.20;;;8.30;99.90;;;;;;5075909;28;20461;-80
2023/01/12 10:27:44;;;;;;;0.30;0.20;;;8.30;99.90;;;;;;5075107;28;20440;-80
2023/01/12 10:30:16;;;;;;;0.30;0.20;;;8.30;99.90;;;;;;5075494;28;20446;-80
2023/01/12 10:32:43;;;;;;;0.30;0.20;;;8.30;99.90;;;;;;5075038;28;20472;-81
2023/01/12 10:35:15;;;;;;;1.03;0.40;;;8.30;99.90;;;;;;5074766;28;20477;-80
2023/01/12 10:37:47;;;;;;;0.30;0.20;;;8.30;99.90;;;;;;5074864;28;20446;-80
2023/01/12 10:40:27;;;;;;;0.30;0.20;;;8.30;99.90;;;;;;5074718;28;21000;-80
2023/01/12 10:43:20;;;;;;;0.30;0.30;;;8.30;99.90;;;;;;5075803;28;20442;-79
2023/01/12 10:46:03;;;;;;;0.30;0.30;;;8.30;99.90;;;;;;5074672;28;20469;-80
2023/01/12 10:48:30;;;;;;;0.30;0.20;;;8.40;99.90;;;;;;5075044;28;20434;-80
2023/01/12 10:50:59;;;;;;;0.30;0.30;;;8.40;99.90;;;;;;5074901;28;20450;-79
2023/01/12 10:53:31;;;;;;;0.30;0.30;;;8.50;99.90;;;;;;5074881;28;20450;-82
2023/01/12 10:56:01;;;;;;;1.43;0.30;;;8.60;99.90;;;;;;5074848;28;21060;-82
2023/01/12 10:58:32;;;;;;;0.30;0.30;;;8.60;99.90;;;;;;5074870;28;20541;-82
2023/01/12 11:01:01;;;;;;;0.40;0.40;;;8.60;99.90;;;;;;5074717;28;20464;-82
2023/01/12 11:03:32;;;;;;;0.77;0.77;;;8.60;99.90;;;;;;5074552;28;20442;-81
2023/01/12 11:06:21;;;;;;;0.30;0.30;;;8.50;99.90;;;;;;5074636;28;20472;-81
2023/01/12 11:08:48;;;;;;;0.60;0.43;;;8.60;99.90;;;;;;5074893;28;20509;-84
2023/01/12 11:11:22;;;;;;;0.30;0.30;;;8.70;99.90;;;;;;5074327;28;20945;-79
2023/01/12 11:13:53;;;;;;;0.30;0.20;;;8.70;99.90;;;;;;5074635;28;20429;-81
2023/01/12 11:16:23;;;;;;;0.30;0.20;;;8.70;99.90;;;;;;5074115;28;20473;-81
2023/01/12 11:19:00;;;;;;;0.30;0.30;;;8.70;99.90;;;;;;5074229;28;20976;-81
2023/01/12 11:21:33;;;;;;;0.30;0.20;;;8.70;99.90;;;;;;5074545;28;20434;-81
2023/01/12 11:24:05;;;;;;;0.30;0.30;;;8.60;99.90;;;;;;5074415;28;20434;-81
2023/01/12 11:26:39;;;;;;;0.30;0.30;;;8.60;99.90;;;;;;5074271;28;20440;-80
2023/01/12 11:29:20;;;;;;;0.30;0.30;;;8.50;99.90;;;;;;5074262;28;20426;-81
2023/01/12 11:31:51;;;;;;;0.40;0.30;;;8.50;99.90;;;;;;5074272;28;20434;-80
2023/01/12 11:34:22;;;;;;;0.30;0.30;;;8.50;99.90;;;;;;5074566;28;20454;-80
2023/01/12 11:36:53;;;;;;;0.40;0.30;;;8.50;99.90;;;;;;5075067;28;20441;-80
2023/01/12 11:39:23;;;;;;;0.40;0.40;;;8.50;99.90;;;;;;5073950;28;20469;-81
2023/01/12 11:44:44;;;;;;;0.30;0.30;;;8.50;99.90;;;;;;5073752;28;20459;-81
2023/01/12 11:47:14;;;;;;;0.40;0.30;;;8.50;99.90;;;;;;5073535;28;20799;-81
2023/01/12 11:49:48;;;;;;;0.77;0.27;;;8.50;99.90;;;;;;5073762;28;20434;-81
2023/01/12 11:52:19;;;;;;;0.40;0.30;;;8.60;99.90;;;;;;5073945;28;20440;-79
2023/01/12 11:54:46;;;;;;;0.30;0.30;;;8.60;99.90;;;;;;5073332;28;20560;-80
2023/01/12 11:57:31;;;;;;;0.40;0.30;;;8.60;99.90;;;;;;5073727;28;20446;-80
2023/01/12 12:00:11;;;;;;;0.30;0.20;;;8.60;99.90;;;;;;5073693;28;20461;-80
2023/01/12 12:02:44;;;;;;;0.33;0.30;;;8.60;99.90;;;;;;5073737;28;20715;-80
2023/01/12 12:05:25;;;;;;;0.50;0.40;;;8.60;99.90;;;;;;5073720;28;20469;-80
2023/01/12 12:08:06;;;;;;;1.20;1.10;;;8.70;99.90;;;;;;5073612;28;20430;-80
2023/01/12 12:10:41;;;;;;;0.40;0.30;;;8.80;99.90;;;;;;5073540;28;20418;-80
2023/01/12 12:13:22;;;;;;;0.30;0.20;;;8.80;99.90;;;;;;5073493;28;20435;-80
2023/01/12 12:15:57;;;;;;;0.30;0.30;;;8.90;99.90;;;;;;5073090;28;20488;-80
2023/01/12 12:18:41;;;;;;;3.30;0.40;;;8.90;99.90;;;;;;5073369;28;20448;-80
2023/01/12 12:21:20;;;;;;;0.30;0.20;;;8.90;99.90;;;;;;5073357;28;20759;-80
2023/01/12 12:23:55;;;;;;;0.30;0.20;;;9.00;99.90;;;;;;5073555;28;20434;-80
2023/01/12 12:26:26;;;;;;;0.30;0.23;;;9.00;99.90;;;;;;5073385;28;20433;-80
2023/01/12 12:29:20;;;;;;;0.43;0.40;;;9.00;99.90;;;;;;5073423;28;20441;-79
2023/01/12 12:31:57;;;;;;;0.30;0.20;;;9.00;99.90;;;;;;5072979;28;20453;-78
2023/01/12 12:34:57;;;;;;;0.30;0.30;;;9.00;99.90;;;;;;5073226;28;20465;-78
2023/01/12 12:37:34;;;;;;;0.30;0.30;;;9.00;99.90;;;;;;5068676;28;20449;-78
2023/01/12 12:40:11;;;;;;;0.30;0.20;;;9.00;99.90;;;;;;5080031;28;20465;-80
2023/01/12 12:45:44;;;;;;;0.40;0.30;;;9.00;99.90;;;;;;5079576;28;21079;-80
2023/01/12 12:48:17;;;;;;;0.40;0.40;;;9.00;99.90;;;;;;5079837;28;20437;-80
2023/01/12 12:50:55;;;;;;;0.30;0.20;;;9.00;99.90;;;;;;5080089;28;20430;-80
2023/01/12 12:53:28;;;;;;;0.30;0.20;;;9.10;99.90;;;;;;5079475;28;20441;-80
2023/01/12 12:55:58;;;;;;;0.30;0.20;;;9.20;99.90;;;;;;5079323;28;20824;-80
2023/01/12 12:58:40;;;;;;;0.30;0.20;;;9.20;99.90;;;;;;5079429;28;20949;-80
2023/01/12 13:01:35;;;;;;;0.30;0.20;;;9.20;99.90;;;;;;5079645;28;20864;-80
2023/01/12 13:04:02;;;;;;;0.30;0.20;;;9.20;99.90;;;;;;5079604;28;20425;-80
2023/01/12 13:06:32;;;;;;;0.30;0.20;;;9.30;99.90;;;;;;5079660;28;20559;-80
2023/01/12 13:09:00;;;;;;;0.37;0.30;;;9.30;99.90;;;;;;5079269;28;20445;-80
2023/01/12 13:11:52;;;;;;;0.30;0.30;;;9.30;99.90;;;;;;5079686;28;20559;-80
2023/01/12 13:14:25;;;;;;;0.30;0.30;;;9.30;99.90;;;;;;5079726;28;20464;-80
2023/01/12 13:16:53;;;;;;;0.30;0.20;;;9.40;99.90;;;;;;5079170;28;20471;-78
2023/01/12 13:19:35;;;;;;;0.40;0.30;;;9.40;99.90;;;;;;5079562;28;20489;-78
2023/01/12 13:22:27;;;;;;;0.30;0.30;;;9.40;99.90;;;;;;5080096;28;20437;-79
2023/01/12 13:24:55;;;;;;;0.30;0.20;;;9.40;99.90;;;;;;5079444;28;20551;-79
2023/01/12 13:27:48;;;;;;;0.30;0.20;;;9.40;99.90;;;;;;5079238;28;20802;-79
2023/01/12 13:30:40;;;;;;;0.30;0.20;;;9.30;99.90;;;;;;5079783;28;20452;-79
2023/01/12 13:33:22;;;;;;;0.30;0.30;;;9.20;99.90;;;;;;5078450;28;20465;-79
2023/01/12 13:36:07;;;;;;;0.40;0.30;;;9.10;99.90;;;;;;5079336;28;20469;-79
2023/01/12 13:38:52;;;;;;;0.30;0.30;;;9.10;99.90;;;;;;5079440;28;20487;-79
2023/01/12 13:44:19;;;;;;;0.30;0.23;;;9.10;99.90;;;;;;5079407;28;20449;-79
2023/01/12 13:46:50;;;;;;;0.57;0.57;;;9.00;99.90;;;;;;5079057;28;20440;-80
2023/01/12 13:49:27;;;;;;;0.30;0.20;;;8.90;99.90;;;;;;5074886;28;20818;-78
2023/01/12 13:52:03;;;;;;;0.30;0.20;;;8.90;99.90;;;;;;5076198;28;20454;-78
2023/01/12 13:54:33;;;;;;;0.30;0.20;;;8.90;99.90;;;;;;5075975;28;20475;-78